Aérodrome :
LOGIN :

S'inscrire | Disclaimer

   EN    FR    IT 

 










Légende :    VFR   VFR Marginal   IFR   IFR Intensif   IFR Très Intensif
Visi : 
Plafond : 
>= 8 km
>= 3000ft
5 à 8 km
1000 à 3000 ft
1500m à 5 km
500 à 1000 ft
800 à 1500m
200 à 500 ft
< 800m
< 200 ft
Symboles :   Orages  Brouillard  Fortes neiges  Fortes précipitations  Vent > 20 kt
SIGMETs :   Divers  Orages  Givrage  Turbulence  Onde Orograph.  Cendres Volcan.







- Altitude de l'aérodrome : 46 ft
- Code IATA : GPA


LGRX - Araxos

DERNIER METAR :
  • 221250Z 11004KT 9999 -DZ SCT020 BKN090 17/14 Q1016

METARs EXPIRÉS :
  • 221220Z 00000KT 9999 BKN090 18/15 Q1017
  • 221150Z 17004KT 9999 BKN090 18/15 Q1017 RMK BKN190 BLU
  • 221120Z 00000KT 9999 BKN090 18/15 Q1017
  • 221050Z 00000KT 9999 BKN090 18/15 Q1017 RMK BKN190 BLU
  • 221020Z 00000KT 9999 BKN090 19/14 Q1016
  • 220950Z 00000KT 9999 BKN090 19/13 Q1016

TAF TAF LGRX
Valide du 22 à 12h jusqu'au 22 à 21h UTC


221100Z 2212/2221 28007KT 9999 FEW020 BKN080
PROB30
TEMPO 2212/2218 7000 RA
TEMPO 2216/2221 18007KT
BECMG 2219/2221 FEW020 SCT080
Pas de NOTAMs connus pour ce terrain.



MET'MAP, la Météo Aéronautique d'un coup d'oeil ! - Copyright ORBIFLY Décembre 2007 - Disclaimer

ORBIFLY MET'MAP TEAM :

Programmation & Développement : Alexandra Zaïnal
Conception & Développement : Baudouin d'Aumeries
Co-Programmation & Développement : Marc-Olivier Méhu
Soutien technique & logistique : Manuel Goepfert

Contact : metmap@orbifly.com




SOURCES & CREDITS :

   NOAA